Northampton, United Kingdom
Current Conditions -  °F | °C
As of 1:50 AM on Saturday 29 Nov 2014 (Local Time) from EGBE Reporting Station
Drizzle Drizzle  
Wind Chill: 50°   Ceiling: 500
Heat Index: 50°   Visibility: 1.8mi
Dew Point: 50°   Wind: 7mph
Humidity: 100%   Direction: 50°NE
Pressure: 29.77"   Gusts: NA
Location:  52.24°N, 0.9°W
Report Text: EGBE 290150Z 05006KT 3000 -DZ BR BKN005 10/10 Q1008
Loading
Personal Weather Stations






























Interactive Weather Map New forecast layout! Learn more

10-Day Weather Forecast

Advertisements
Track Severe Weather on mobile